Terminal Aerodrome Forecast
Issued by NWS Newport/Morehead City, NC

Home | Current Version | Previous Version | Text Only | Print | Product List | Glossary On
Versions: 1 2 3 4 5 6 7 8 9 10 11 12 13 14 15 16 17 18 19 20 21 22 23 24
000
FTUS42 KMHX 312010 AAA
TAFEWN
TAF AMD
KEWN 312010Z 3120/0118 15005KT P6SM VCSH BKN012
     FM010200 17005KT P6SM BKN012
     FM010600 00000KT 4SM BR OVC007
      TEMPO 0108/0112 2SM BR OVC004
     FM011500 VRB03KT P6SM BKN025=

USA.gov is the U.S. government's official web portal to all federal, state and local government web resources and services.